CheckWX is a tool to help pilots better visualize weather data.  It is not intended as a substitute for an official pre-flight weather briefing.

03:47:12 UTC

LYUZ METAR
Uzice-ponikve
Uzice-ponikve
Current

17 mins ago

LYUZ 210330Z AUTO 27003KT 240V310 9999 OVC007/// M06/M07 Q1041
Observed
Jan-21 @ 03:30 UTC
Wind
  • 270° at 3 KTS
Visibility
10,000+ meters
Flight Rules
IFR
Cloud Levels
  • Overcast at 700' AGL
Temperature
-6°C / 21°F
Dewpoint
-7°C / 19°F
Humidity
93%
Altimeter
30.74" Hg
Pressure
1040.92 hPa
Previous

47 mins ago

LYUZ 210300Z AUTO VRB02KT 9999 OVC007/// M06/M07 Q1041
Observed
Jan-21 @ 03:00 UTC
Wind
  • Variable at 2 KTS
Visibility
10,000+ meters
Flight Rules
IFR
Cloud Levels
  • Overcast at 700' AGL
Temperature
-6°C / 21°F
Dewpoint
-7°C / 19°F
Humidity
93%
Altimeter
30.74" Hg
Pressure
1040.92 hPa
Previous

1 hour ago

LYUZ 210230Z AUTO VRB02KT 9999 OVC007/// M06/M07 Q1041
Observed
Jan-21 @ 02:30 UTC
Wind
  • Variable at 2 KTS
Visibility
10,000+ meters
Flight Rules
IFR
Cloud Levels
  • Overcast at 700' AGL
Temperature
-6°C / 21°F
Dewpoint
-7°C / 19°F
Humidity
93%
Altimeter
30.74" Hg
Pressure
1040.92 hPa